Flight Track Log - Related Links

Times and Time Zones

All times are in EDT time to prevent confusion due to time zone crossing. See the SWA1798 flight status page for this flight to view local times or setup timezone preferences in your user account.

Time Position Orientation Groundspeed Altitude Reporting Facility
EDT Latitude Longitude Course Direction KTS MPH feet Rate Location/Type
Sat 04:19:53 PM 37.6667 -122.3667 191° South 197 227 2,700  Level Northern Cal TRACON
Sat 04:22:11 PM 37.5767 -122.4475 215° Southwest 264 304 10,700 3,467 Climbing Oakland Center
Sat 04:23:12 PM 37.4836 -122.4658 189° South 335 386 14,200 3,344 Climbing Oakland Center
Sat 04:24:13 PM 37.3836 -122.4864 189° South 362 417 17,500 2,927 Climbing Oakland Center
Sat 04:25:00 PM 37.1411 -122.5439 191° South  Level FlightAware Approximate
Sat 04:25:15 PM 37.2683 -122.5092 189° South 414 476 20,200  Level Oakland Center
Sat 04:26:16 PM 37.1228 -122.5383 189° South 440 506 23,600 3,049 Climbing Oakland Center
Sat 04:27:17 PM 36.9942 -122.5664 190° South 465 535 26,400 3,000 Climbing Oakland Center
Sat 04:28:18 PM 36.8658 -122.5497 174° South 468 539 29,700 3,073 Climbing Oakland Center
Sat 04:29:20 PM 36.7447 -122.5175 168° South 447 514 32,700 2,585 Climbing Oakland Center
Sat 04:30:21 PM 36.6253 -122.4853 168° South 441 507 35,000 2,066 Climbing Oakland Center
Sat 04:31:22 PM 36.5044 -122.4542 168° South 443 510 36,900 1,820 Climbing Oakland Center
Sat 04:32:23 PM 36.3936 -122.3933 156° South 446 513 38,700 1,574 Climbing Oakland Center
Sat 04:33:24 PM 36.3156 -122.2797 130° Southeast 440 506 40,100 1,122 Climbing Oakland Center
Sat 04:34:26 PM 36.2367 -122.1647 130° Southeast 440 506 41,000 439 Climbing Oakland Center
Sat 04:35:27 PM 36.1542 -122.0453 131° Southeast 454 522 41,000  Level Oakland Center
Sat 04:36:28 PM 36.0536 -121.8997 130° Southeast 465 535 41,000  Level Oakland Center
Sat 04:37:29 PM 35.9828 -121.7978 131° Southeast 464 534 41,000  Level Oakland Center
Sat 04:38:31 PM 35.8817 -121.6531 131° Southeast 465 535 41,000  Level Oakland Center
Sat 04:39:32 PM 35.7964 -121.5317 131° Southeast 468 539 41,000  Level Oakland Center
Sat 04:40:33 PM 35.7131 -121.4117 131° Southeast 465 535 41,000  Level Oakland Center
Sat 04:41:34 PM 35.6281 -121.2919 131° Southeast 464 534 41,000  Level Oakland Center
Sat 04:42:35 PM 35.5450 -121.1719 130° Southeast 465 535 41,000  Level Oakland Center
Sat 04:43:37 PM 35.4506 -121.0661 138° Southeast 464 534 41,000  Level Oakland Center
Sat 04:44:38 PM 35.3422 -120.9814 147° Southeast 465 535 41,000  Level Oakland Center
Sat 04:45:39 PM 35.2353 -120.8958 147° Southeast 463 533 41,000  Level Oakland Center
Sat 04:46:40 PM 35.1067 -120.7964 148° Southeast 461 531 41,000 -244 Level Oakland Center
Sat 04:47:42 PM 34.9994 -120.7131 148° Southeast 460 529 40,500 -683 Descending Oakland Center
Sat 04:48:43 PM 34.8986 -120.6350 148° Southeast 459 528 39,600 -934 Descending Oakland Center
Sat 04:49:44 PM 34.7919 -120.5519 147° Southeast 454 522 38,600 -1,024 Descending Oakland Center
Sat 04:50:46 PM 34.6817 -120.4650 147° Southeast 453 521 37,500 -1,073 Descending Oakland Center
Sat 04:51:47 PM 34.5800 -120.3906 149° Southeast 441 507 36,400 -984 Descending Oakland Center
Sat 04:52:48 PM 34.4800 -120.3125 147° Southeast 429 494 35,500 -907 Descending Oakland Center
Sat 04:53:13 PM 34.4408 -120.2833 148° Southeast 427 491 35,100 -1,034 Descending Los Angeles Center
Sat 04:54:15 PM 34.3211 -120.1936 148° Southeast 429 494 34,000 -1,016 Descending Los Angeles Center
Sat 04:55:17 PM 34.2336 -120.1011 139° Southeast 429 494 33,000 -1,016 Descending Los Angeles Center
Sat 04:56:19 PM 34.1736 -119.9822 121° Southeast 416 479 31,900 -1,500 Descending Los Angeles Center
Sat 04:57:21 PM 34.1150 -119.8669 122° Southeast 408 470 29,900 -1,355 Descending Los Angeles Center
Sat 04:58:23 PM 34.0561 -119.7461 120° Southeast 421 484 29,100 -919 Descending Los Angeles Center
Sat 04:59:25 PM 33.9772 -119.5906 121° Southeast 452 520 28,000 -1,452 Descending Los Angeles Center
Sat 05:00:27 PM 33.9108 -119.4606 122° Southeast 456 525 26,100 -2,304 Descending Los Angeles Center
Sat 05:01:30 PM 33.8494 -119.3361 121° Southeast 439 505 23,200 -2,736 Descending Los Angeles Center
Sat 05:02:32 PM 33.7894 -119.2194 122° Southeast 412 474 20,400 -2,661 Descending Los Angeles Center
Sat 05:03:34 PM 33.7314 -119.1047 121° Southeast 404 465 17,700 -2,903 Descending Los Angeles Center
Sat 05:04:36 PM 33.6636 -118.9747 122° Southeast 385 443 14,400 -2,952 Descending Los Angeles Center
Sat 05:05:38 PM 33.6094 -118.8703 122° Southeast 374 430 11,600 -1,694 Descending Los Angeles Center
Sat 05:06:40 PM 33.5619 -118.7708 120° Southeast 351 404 10,900 -726 Descending Los Angeles Center
Sat 05:07:42 PM 33.5614 -118.6744 90° East 297 342 10,100 -1,113 Descending Los Angeles Center
Sat 05:08:44 PM 33.5633 -118.5825 89° East 282 325 8,600 -1,500 Descending Los Angeles Center
Sat 05:09:46 PM 33.5975 -118.4814 68° East 285 328 7,000 -1,452 Descending Los Angeles Center
Sat 05:10:48 PM 33.6036 -118.3931 85° East 282 325 5,600 -919 Descending Los Angeles Center
Sat 05:11:50 PM 33.5989 -118.3014 94° East 282 325 5,100 -242 Descending Los Angeles Center
Sat 05:12:52 PM 33.5928 -118.2122 95° East 277 319 5,100  Level Los Angeles Center
Sat 05:13:54 PM 33.6164 -118.1375 69° East 259 298 5,100 -45 Level Los Angeles Center
Sat 05:15:04 PM 33.6667 -118.0500 55° Northeast 221 254 5,000 -44 Descending Southern California TRACON
Sat 05:16:10 PM 33.7000 -117.9833 59° Northeast 213 245 5,000 -50 Level Southern California TRACON
Sat 05:17:05 PM 33.7333 -117.9333 51° Northeast 211 243 4,900 -783 Descending Southern California TRACON
Sat 05:18:05 PM 33.7667 -117.8833 51° Northeast 206 237 3,500 -1,300 Descending Southern California TRACON
Sat 05:19:05 PM 33.7833 -117.8167 73° East 199 229 2,300 -1,041 Descending Southern California TRACON
Sat 05:20:06 PM 33.7333 -117.8333 195° South 157 181 1,400 -843 Descending Southern California TRACON
Sat 05:21:06 PM 33.7000 -117.8500 203° Southwest 123 142 600 -800 Descending Southern California TRACON
Sat 05:24:00 PM 33.6757 -117.8682 132° Southeast  Level Estimated

Login

Don't have an account? Register now (free) for customized features, flight alerts, and more!